• Join FlightAware (Why Join?)
  • Login
  • US Flag 
08:55PM EDT


 

Airport Tracker/Info


-or-


 

Live Flight TrackerFlight Track Log ✈ SWA1021 ✈ 12-Apr-2013 ✈ KOAK - KLAX

Flight Track Log - Related Links

Times and Time Zones

All times are in EDT time to prevent confusion due to time zone crossing. See the SWA1021 flight status page for this flight to view local times or setup timezone preferences in your user account.

Time Position Orientation Groundspeed Altitude Reporting Facility
EDT Latitude Longitude Course Direction KTS MPH feet Rate Location/Type
10:10AM 37.7300 -122.2589 308° West 175 201 1,300  Level Oakland Center
10:11AM 37.7644 -122.3156 308° West 206 237 3,700 2,400 Climbing Oakland Center
10:12AM 37.7511 -122.3964 258° West 238 274 6,200 2,100 Climbing Oakland Center
10:13AM 37.7028 -122.4514 222° Southwest 258 297 8,000 1,680 Climbing Oakland Center
10:14AM 37.6319 -122.4708 192° South 265 305 9,700 2,220 Climbing Oakland Center
10:15AM 37.5567 -122.4586 173° South 271 312 12,600 2,040 Climbing Oakland Center
10:16AM 37.4861 -122.3981 146° Southeast 329 379 13,900 1,560 Climbing Oakland Center
10:17AM 37.4125 -122.2969 132° Southeast 389 448 15,800 1,860 Climbing Oakland Center
10:18AM 37.3328 -122.1875 132° Southeast 420 483 17,700 2,340 Climbing Oakland Center
10:19AM 37.2333 -122.0525 133° Southeast 440 506 20,600 2,160 Climbing Oakland Center
10:20AM 37.1464 -121.9344 133° Southeast 460 529 22,100 1,680 Climbing Oakland Center
10:21AM 37.0564 -121.8131 133° Southeast 476 548 24,100 1,620 Climbing Oakland Center
10:22AM 36.9636 -121.6911 134° Southeast 482 555 25,500 1,380 Climbing Oakland Center
10:23AM 36.8681 -121.5644 133° Southeast 497 572 27,000 1,560 Climbing Oakland Center
10:24AM 36.7678 -121.4322 133° Southeast 506 582 28,700 1,620 Climbing Oakland Center
10:25AM 36.6725 -121.3025 132° Southeast 507 583 30,300 1,740 Climbing Oakland Center
10:26AM 36.5767 -121.1767 133° Southeast 505 581 32,300 1,500 Climbing Oakland Center
10:27AM 36.4822 -121.0517 133° Southeast 499 574 33,400 1,080 Climbing Oakland Center
10:28AM 36.3853 -120.9269 134° Southeast 501 577 34,600 1,020 Climbing Oakland Center
10:29AM 36.2886 -120.8003 133° Southeast 504 580 35,500 900 Climbing Oakland Center
10:30AM 36.1900 -120.6728 134° Southeast 511 588 36,500 720 Climbing Oakland Center
10:31AM 36.0925 -120.5472 134° Southeast 507 583 37,000 240 Climbing Oakland Center
10:32AM 35.9958 -120.4222 134° Southeast 505 581 37,000  Level Oakland Center
10:33AM 35.8811 -120.2761 134° Southeast 493 567 37,000  Level Oakland Center
10:34AM 35.7847 -120.1553 135° Southeast 492 566 37,000  Level Oakland Center
10:35AM 35.6911 -120.0342 134° Southeast 486 559 37,000  Level Oakland Center
10:36AM 35.5869 -119.9247 139° Southeast 491 565 37,000  Level Oakland Center
10:37AM 35.4728 -119.8292 146° Southeast 491 565 37,000  Level Oakland Center
10:38AM 35.3597 -119.7319 145° Southeast 492 566 37,000  Level Oakland Center
10:39AM 35.2706 -119.6547 145° Southeast 490 564 37,000 -600 Level Los Angeles Center
10:40AM 35.1600 -119.5592 145° Southeast 487 560 35,900 -1,260 Descending Los Angeles Center
10:41AM 35.0286 -119.4453 145° Southeast 484 557 34,500 -2,280 Descending Los Angeles Center
10:43AM 34.9097 -119.3447 145° Southeast 511 588 30,800 -3,540 Descending Los Angeles Center
10:44AM 34.7675 -119.2236 145° Southeast 518 596 26,600 -3,420 Descending Los Angeles Center
10:45AM 34.6553 -119.1306 146° Southeast 491 565 23,800 -2,940 Descending Los Angeles Center
10:46AM 34.5339 -119.0308 146° Southeast 460 529 20,600 -2,820 Descending Los Angeles Center
10:47AM 34.4328 -118.9458 145° Southeast 441 507 18,000 -2,580 Descending Los Angeles Center
10:48AM 34.3358 -118.8731 148° Southeast 410 472 15,400 -1,980 Descending Los Angeles Center
10:49AM 34.2317 -118.8356 163° South 388 447 14,000 -1,260 Descending Los Angeles Center
10:50AM 34.1392 -118.8019 163° South 346 398 12,800 -1,260 Descending Los Angeles Center
10:51AM 34.0506 -118.7622 160° South 319 367 11,500 -1,320 Descending Los Angeles Center
10:52AM 34.0292 -118.6647 105° East 287 330 10,200 -1,500 Descending Los Angeles Center
10:53AM 34.0211 -118.5742 96° East 275 316 8,500 -1,560 Descending Los Angeles Center
10:54AM 34.0119 -118.4833 97° East 273 314 7,100 -1,080 Descending Los Angeles Center
10:55AM 34.0172 -118.4017 86° East 245 282 6,400 -1,140 Descending Los Angeles Center
10:56AM 34.0228 -118.3244 85° East 232 267 4,800 -1,200 Descending Los Angeles Center
10:57AM 34.0283 -118.2478 85° East 230 265 4,000 -780 Descending Los Angeles Center
10:58AM 34.0150 -118.1819 104° East 237 273 3,300 -900 Descending Los Angeles Center
10:59AM 33.9722 -118.2144 212° Southwest 228 262 2,200 -600 Descending Los Angeles Center
11:00AM 33.9650 -118.2844 263° West 218 251 2,100 -660 Descending Los Angeles Center
11:01AM 33.9581 -118.3542 263° West 188 216 900 -1,020 Descending Los Angeles Center
11:02AM 33.9522 -118.4008 261° West 157 181 100 -780 Descending Los Angeles Center
11:04AM 33.9425 -118.4081 228° Southwest  Level Estimated
11:11AM 33.9425 -118.4081 228° Southwest  Level Estimated